Terminal Aerodrome Forecast
Issued by NWS Upton, NY

Home | Current Version | Previous Version | Text Only | Print | Product List | Glossary On
Versions: 1 2 3 4 5 6 7 8 9 10 11 12 13 14 15 16 17 18 19 20 21 22 23 24 25 26
000
FTUS41 KOKX 310500
TAFBDR
TAF
KBDR 310537Z 3106/0106 35004KT P6SM SCT050
     FM311400 05007KT P6SM BKN035
     FM311800 08008KT P6SM BKN035
      TEMPO 3122/0102 -RA
     FM010200 04012KT P6SM -RA OVC025=

USA.gov is the U.S. government's official web portal to all federal, state and local government web resources and services.